createdAt,value
2018-03-26T00:00:57.487Z,61.74
2018-03-26T00:03:31.090Z,61.87
2018-03-26T00:06:04.762Z,62.12
2018-03-26T00:08:38.445Z,62.22
2018-03-26T00:11:12.145Z,62.29
2018-03-26T00:13:45.854Z,62.64
2018-03-26T00:16:19.483Z,62.79
2018-03-26T00:18:53.096Z,63.15
2018-03-26T00:21:26.698Z,63.34
2018-03-26T00:24:00.286Z,63.50
2018-03-26T00:26:33.826Z,63.83
2018-03-26T00:29:07.411Z,64.10
2018-03-26T00:31:40.987Z,64.57
2018-03-26T00:34:14.597Z,64.94
2018-03-26T00:36:48.276Z,65.11
2018-03-26T00:39:22.075Z,65.52
2018-03-26T00:41:55.768Z,66.30
2018-03-26T00:44:29.502Z,67.07
2018-03-26T00:47:03.094Z,67.51
2018-03-26T00:49:36.726Z,68.12
2018-03-26T00:52:10.322Z,68.47
2018-03-26T00:54:44.037Z,68.45
2018-03-26T00:57:17.611Z,68.53
2018-03-26T00:59:51.206Z,68.33
2018-03-26T01:02:24.718Z,68.18
2018-03-26T01:04:58.302Z,68.13
2018-03-26T01:07:31.929Z,68.20
2018-03-26T01:10:05.531Z,68.12
2018-03-26T01:12:39.146Z,68.21
2018-03-26T01:15:12.894Z,68.47
2018-03-26T01:17:46.595Z,69.10
2018-03-26T01:20:20.233Z,69.44
2018-03-26T01:22:53.755Z,69.83
2018-03-26T01:25:27.384Z,70.09
2018-03-26T01:28:00.950Z,70.12
2018-03-26T01:30:34.562Z,70.30
2018-03-26T01:33:08.129Z,70.63
2018-03-26T01:35:41.806Z,71.03
2018-03-26T01:38:15.467Z,71.01
2018-03-26T01:40:49.065Z,71.42
2018-03-26T01:43:22.619Z,71.24
2018-03-26T01:45:56.324Z,71.57
2018-03-26T01:48:30.090Z,71.50
2018-03-26T01:51:03.613Z,71.79
2018-03-26T01:53:37.218Z,71.88
2018-03-26T01:56:10.855Z,72.55
2018-03-26T01:58:44.487Z,72.16
2018-03-26T02:01:18.299Z,72.37
2018-03-26T02:03:51.875Z,72.58
2018-03-26T02:06:25.604Z,73.01
2018-03-26T02:08:59.175Z,73.05
2018-03-26T02:11:32.813Z,73.16
2018-03-26T02:14:06.522Z,73.47
2018-03-26T02:16:40.054Z,73.49
2018-03-26T02:19:13.725Z,73.46
2018-03-26T02:21:47.255Z,73.10
2018-03-26T02:24:20.831Z,73.10
2018-03-26T02:30:12.811Z,73.68
2018-03-26T02:32:46.447Z,74.63
2018-03-26T02:35:20.034Z,74.90
2018-03-26T02:37:53.683Z,75.59
2018-03-26T02:40:27.233Z,76.07
2018-03-26T02:43:00.867Z,75.87
2018-03-26T02:45:34.492Z,75.90
2018-03-26T02:48:08.106Z,75.93
2018-03-26T02:50:41.795Z,76.52
2018-03-26T02:53:15.405Z,76.52
2018-03-26T02:55:49.048Z,76.85
2018-03-26T02:58:22.662Z,77.26
2018-03-26T03:00:56.295Z,77.31
2018-03-26T03:03:29.947Z,77.31
2018-03-26T03:06:03.490Z,77.42
2018-03-26T03:08:37.201Z,77.42
2018-03-26T03:11:10.790Z,77.69
2018-03-26T03:13:44.407Z,77.92
2018-03-26T03:16:18.015Z,78.11
2018-03-26T03:18:51.648Z,78.52
2018-03-26T03:21:25.466Z,78.56
2018-03-26T03:23:59.107Z,78.55
2018-03-26T03:26:32.788Z,78.56
2018-03-26T03:29:06.563Z,78.73
2018-03-26T03:31:40.117Z,78.72
2018-03-26T03:34:13.910Z,78.67
2018-03-26T03:36:48.410Z,78.73
2018-03-26T03:39:22.222Z,78.56
2018-03-26T03:41:55.906Z,78.63
2018-03-26T03:44:29.592Z,78.52
2018-03-26T03:47:03.150Z,78.50
2018-03-26T03:49:36.691Z,78.36
2018-03-26T03:52:10.337Z,78.11
2018-03-26T03:54:43.919Z,78.15
2018-03-26T03:57:17.551Z,78.23
2018-03-26T03:59:51.328Z,78.37
2018-03-26T04:02:24.966Z,78.24
2018-03-26T04:04:58.534Z,78.30
2018-03-26T04:07:32.214Z,78.32
2018-03-26T04:10:05.822Z,78.46
2018-03-26T04:12:39.514Z,78.59
2018-03-26T04:15:13.158Z,78.55
2018-03-26T04:17:46.818Z,78.32
2018-03-26T04:20:20.394Z,78.64
2018-03-26T04:22:54.066Z,78.50
2018-03-26T04:25:27.794Z,78.76
2018-03-26T04:28:01.322Z,78.73
2018-03-26T04:30:34.978Z,78.76
2018-03-26T04:33:08.606Z,78.75
2018-03-26T04:35:42.354Z,78.66
2018-03-26T04:38:15.908Z,78.60
2018-03-26T04:40:49.574Z,78.50
2018-03-26T04:43:23.337Z,78.71
2018-03-26T04:45:56.854Z,79.08
2018-03-26T04:48:30.451Z,79.09
2018-03-26T04:51:04.038Z,79.26
2018-03-26T04:53:37.638Z,79.14
2018-03-26T04:56:11.466Z,79.57
2018-03-26T04:58:45.147Z,79.93
2018-03-26T05:01:18.749Z,80.11
2018-03-26T05:03:52.398Z,80.24
2018-03-26T05:06:26.115Z,80.31
2018-03-26T05:08:59.818Z,80.68
2018-03-26T05:11:33.590Z,81.04
2018-03-26T05:14:07.307Z,81.52
2018-03-26T05:16:41.029Z,81.61
2018-03-26T05:19:14.666Z,81.92
2018-03-26T05:21:48.238Z,82.06
2018-03-26T05:24:22.039Z,82.41
2018-03-26T05:29:55.466Z,82.83
2018-03-26T05:32:29.158Z,83.16
2018-03-26T05:35:02.767Z,83.19
2018-03-26T05:37:36.373Z,83.44
2018-03-26T05:40:10.122Z,83.36
2018-03-26T05:42:43.731Z,83.43
2018-03-26T05:45:17.366Z,83.69
2018-03-26T05:47:51.098Z,83.86
2018-03-26T05:50:24.783Z,83.93
2018-03-26T05:52:58.482Z,83.69
2018-03-26T05:55:32.128Z,83.85
2018-03-26T05:58:05.670Z,83.45
2018-03-26T06:00:39.490Z,83.62
2018-03-26T06:03:13.108Z,83.65
2018-03-26T06:05:46.786Z,83.57
2018-03-26T06:08:20.385Z,82.96
2018-03-26T06:10:53.980Z,82.71
2018-03-26T06:13:27.518Z,82.28
2018-03-26T06:16:01.252Z,81.61
2018-03-26T06:18:34.930Z,81.30
2018-03-26T06:21:08.622Z,80.99
2018-03-26T06:23:42.310Z,80.75
2018-03-26T06:26:15.976Z,80.29
2018-03-26T06:28:49.522Z,79.55
2018-03-26T06:31:23.078Z,79.09
2018-03-26T06:33:56.691Z,78.30
2018-03-26T06:36:36.234Z,77.83
2018-03-26T06:39:26.707Z,77.55
2018-03-26T06:42:00.302Z,77.50
2018-03-26T06:44:33.963Z,77.33
2018-03-26T06:47:17.838Z,77.24
2018-03-26T06:49:51.627Z,77.22
2018-03-26T06:52:25.214Z,77.40
2018-03-26T06:54:58.840Z,77.28
2018-03-26T06:57:32.514Z,77.08
2018-03-26T07:00:06.353Z,76.56
2018-03-26T07:02:39.952Z,75.43
2018-03-26T07:05:13.474Z,73.09
2018-03-26T07:07:47.177Z,71.10
2018-03-26T07:10:20.987Z,69.08
2018-03-26T07:12:54.681Z,68.89
2018-03-26T07:15:28.307Z,68.95
2018-03-26T07:18:02.105Z,68.77
2018-03-26T07:20:35.742Z,67.88
2018-03-26T07:23:09.386Z,66.92
2018-03-26T07:25:43.207Z,68.40
2018-03-26T07:28:17.017Z,69.39
2018-03-26T07:30:50.787Z,70.30
2018-03-26T07:33:24.489Z,72.06
2018-03-26T07:35:58.324Z,70.99
2018-03-26T07:38:32.012Z,66.93
2018-03-26T07:41:05.794Z,64.30
2018-03-26T07:43:39.330Z,64.08
2018-03-26T07:46:12.974Z,61.68
2018-03-26T07:48:46.783Z,59.00
2018-03-26T07:51:20.571Z,55.50
2018-03-26T07:53:54.194Z,52.23
2018-03-26T07:56:27.827Z,49.72
2018-03-26T07:59:01.400Z,51.29
2018-03-26T08:01:35.042Z,51.43
2018-03-26T08:04:08.662Z,54.43
2018-03-26T08:06:42.421Z,57.04
2018-03-26T08:09:16.135Z,58.03
2018-03-26T08:11:50.175Z,58.65
2018-03-26T08:14:23.774Z,60.31
2018-03-26T08:16:57.395Z,60.34
2018-03-26T08:19:31.046Z,62.01
2018-03-26T08:22:04.575Z,63.10
2018-03-26T08:24:38.233Z,63.63
2018-03-26T08:27:11.860Z,64.73
2018-03-26T08:29:45.643Z,62.56
2018-03-26T08:32:19.411Z,63.24
2018-03-26T08:34:53.139Z,60.94
2018-03-26T08:37:26.764Z,59.74
2018-03-26T08:40:00.629Z,60.35
2018-03-26T08:42:34.370Z,61.27
2018-03-26T08:45:08.182Z,60.95
2018-03-26T08:47:41.692Z,60.44
2018-03-26T08:50:15.352Z,60.02
2018-03-26T08:52:48.952Z,59.67
2018-03-26T08:55:22.538Z,59.06
2018-03-26T08:57:56.171Z,58.36
2018-03-26T09:00:29.793Z,58.37
2018-03-26T09:03:03.573Z,56.33
2018-03-26T09:05:37.143Z,51.96
2018-03-26T09:08:10.966Z,47.31
2018-03-26T09:10:44.719Z,44.31
2018-03-26T09:13:18.492Z,43.69
2018-03-26T09:15:52.087Z,42.74
2018-03-26T09:18:25.775Z,41.09
2018-03-26T09:20:59.669Z,44.59
2018-03-26T09:23:33.318Z,46.51
2018-03-26T09:26:07.020Z,44.96
2018-03-26T09:28:40.656Z,42.51
2018-03-26T09:31:14.455Z,41.55
2018-03-26T09:33:48.087Z,41.93
2018-03-26T09:36:21.777Z,42.35
2018-03-26T09:38:55.378Z,41.95
2018-03-26T09:41:28.922Z,43.32
2018-03-26T09:44:02.474Z,41.62
2018-03-26T09:46:36.088Z,42.95
2018-03-26T09:49:09.871Z,45.43
2018-03-26T09:51:43.494Z,47.92
2018-03-26T09:54:17.223Z,48.46
2018-03-26T09:56:50.982Z,49.53
2018-03-26T09:59:24.730Z,49.40
2018-03-26T10:01:58.415Z,48.90
2018-03-26T10:04:32.148Z,48.89
2018-03-26T10:07:05.754Z,50.35
2018-03-26T10:09:39.398Z,51.38
2018-03-26T10:12:13.200Z,51.53
2018-03-26T10:14:47.165Z,49.56
2018-03-26T10:17:20.923Z,49.38
2018-03-26T10:19:54.688Z,48.95
2018-03-26T10:22:28.463Z,49.39
2018-03-26T10:25:02.843Z,49.39
2018-03-26T10:27:36.475Z,47.06
2018-03-26T10:30:10.221Z,46.26
2018-03-26T10:32:44.048Z,46.93
2018-03-26T10:35:17.662Z,45.64
2018-03-26T10:37:51.346Z,45.57
2018-03-26T10:40:25.085Z,46.20
2018-03-26T10:42:58.782Z,47.59
2018-03-26T10:45:32.406Z,45.68
2018-03-26T10:48:05.938Z,46.63
2018-03-26T10:50:39.682Z,43.99
2018-03-26T10:53:13.394Z,43.04
2018-03-26T10:55:47.178Z,45.36
2018-03-26T10:58:20.888Z,43.76
2018-03-26T11:00:54.582Z,43.02
2018-03-26T11:03:28.190Z,42.41
2018-03-26T11:06:01.846Z,41.27
2018-03-26T11:08:35.517Z,37.74
2018-03-26T11:11:09.272Z,37.93
2018-03-26T11:13:42.907Z,40.04
2018-03-26T11:16:16.859Z,40.19
2018-03-26T11:18:50.699Z,42.54
2018-03-26T11:21:24.431Z,44.42
2018-03-26T11:23:58.201Z,44.52
2018-03-26T11:26:31.917Z,43.15
2018-03-26T11:29:05.640Z,43.00
2018-03-26T11:31:39.317Z,43.16
2018-03-26T11:34:12.984Z,44.26
2018-03-26T11:36:46.764Z,44.33
2018-03-26T11:39:20.493Z,45.38
2018-03-26T11:41:54.284Z,45.93
2018-03-26T11:44:28.014Z,46.69
2018-03-26T11:47:01.691Z,46.65
2018-03-26T11:49:35.512Z,46.02
2018-03-26T11:52:09.303Z,45.79
2018-03-26T11:54:42.887Z,44.94
2018-03-26T11:57:16.592Z,44.22
2018-03-26T11:59:50.263Z,44.12
2018-03-26T12:02:23.974Z,44.27
2018-03-26T12:04:57.662Z,44.76
2018-03-26T12:07:31.351Z,45.98
2018-03-26T12:10:05.098Z,46.25
2018-03-26T12:12:38.835Z,44.17
2018-03-26T12:15:12.515Z,44.07
2018-03-26T12:17:46.250Z,43.02
2018-03-26T12:20:31.780Z,44.55
2018-03-26T12:23:17.375Z,43.85
2018-03-26T12:26:04.089Z,44.11
2018-03-26T12:28:49.795Z,43.50
2018-03-26T12:31:23.474Z,44.47
2018-03-26T12:34:09.024Z,45.28
2018-03-26T12:36:42.686Z,45.76
2018-03-26T12:39:16.391Z,45.34
2018-03-26T12:41:50.350Z,45.17
2018-03-26T12:44:36.022Z,46.78
2018-03-26T12:47:09.730Z,46.25
2018-03-26T12:49:43.312Z,45.41
2018-03-26T12:52:28.832Z,45.57
2018-03-26T12:55:02.611Z,45.36
2018-03-26T12:57:48.331Z,45.35
2018-03-26T13:00:22.041Z,46.08
2018-03-26T13:02:55.572Z,43.61
2018-03-26T13:05:29.430Z,42.78
2018-03-26T13:08:03.378Z,42.44
2018-03-26T13:10:37.127Z,42.17
2018-03-26T13:13:10.763Z,42.64
2018-03-26T13:15:44.587Z,42.69
2018-03-26T13:18:18.372Z,43.83
2018-03-26T13:20:52.134Z,42.75
2018-03-26T13:23:25.865Z,40.79
2018-03-26T13:25:59.764Z,41.07
2018-03-26T13:28:33.418Z,42.98
2018-03-26T13:31:07.043Z,43.04
2018-03-26T13:33:40.782Z,43.19
2018-03-26T13:36:14.458Z,43.17
2018-03-26T13:38:48.018Z,42.14
2018-03-26T13:41:21.785Z,42.17
2018-03-26T13:43:55.479Z,42.00
2018-03-26T13:46:34.384Z,40.72
2018-03-26T13:49:08.050Z,41.46
2018-03-26T13:51:41.830Z,40.67
2018-03-26T13:54:15.518Z,40.99
2018-03-26T13:56:49.313Z,40.65
2018-03-26T13:59:23.051Z,41.23
2018-03-26T14:01:56.674Z,40.97
2018-03-26T14:04:30.235Z,40.86
2018-03-26T14:07:03.830Z,40.47
2018-03-26T14:12:49.677Z,41.39
2018-03-26T14:15:35.338Z,41.64
2018-03-26T14:18:09.086Z,40.50
2018-03-26T14:20:42.697Z,40.00
2018-03-26T14:23:16.285Z,40.99
2018-03-26T14:25:50.032Z,40.39
2018-03-26T14:28:23.549Z,40.52
2018-03-26T14:30:57.153Z,40.85
2018-03-26T14:33:30.739Z,41.13
2018-03-26T14:36:04.337Z,40.47
2018-03-26T14:38:37.846Z,37.04
2018-03-26T14:41:11.797Z,32.74
2018-03-26T14:43:45.405Z,30.93
2018-03-26T14:46:19.044Z,30.45
2018-03-26T14:48:52.605Z,29.49
2018-03-26T14:51:26.249Z,28.99
2018-03-26T14:53:59.922Z,32.65
2018-03-26T14:56:33.477Z,35.95
2018-03-26T14:59:07.249Z,38.08
2018-03-26T15:01:40.790Z,37.51
2018-03-26T15:04:14.517Z,37.58
2018-03-26T15:06:48.278Z,38.90
2018-03-26T15:09:21.845Z,39.36
2018-03-26T15:11:55.369Z,40.52
2018-03-26T15:14:28.999Z,39.29
2018-03-26T15:17:16.896Z,40.77
2018-03-26T15:19:50.654Z,41.14
2018-03-26T15:22:24.402Z,40.26
2018-03-26T15:24:57.910Z,37.29
2018-03-26T15:27:31.587Z,33.41
2018-03-26T15:30:05.209Z,30.54
2018-03-26T15:32:38.878Z,29.79
2018-03-26T15:35:12.443Z,30.11
2018-03-26T15:37:46.241Z,31.79
2018-03-26T15:40:19.802Z,33.99
2018-03-26T15:42:53.293Z,35.59
2018-03-26T15:45:27.074Z,35.96
2018-03-26T15:48:00.726Z,37.10
2018-03-26T15:50:34.529Z,38.20
2018-03-26T15:53:08.343Z,39.18
2018-03-26T15:55:42.002Z,39.84
2018-03-26T15:58:15.637Z,40.40
2018-03-26T16:00:49.763Z,40.71
2018-03-26T16:03:29.113Z,41.49
2018-03-26T16:06:02.782Z,42.27
2018-03-26T16:08:36.566Z,42.99
2018-03-26T16:11:10.147Z,43.32
2018-03-26T16:13:43.745Z,44.02
2018-03-26T16:16:17.422Z,44.41
2018-03-26T16:18:51.077Z,44.20
2018-03-26T16:21:24.765Z,43.33
2018-03-26T16:23:58.375Z,44.24
2018-03-26T16:26:32.021Z,44.83
2018-03-26T16:29:05.671Z,45.25
2018-03-26T16:31:39.233Z,45.53
2018-03-26T16:34:12.770Z,46.17
2018-03-26T16:36:46.401Z,46.47
2018-03-26T16:39:20.096Z,46.67
2018-03-26T16:41:53.750Z,47.49
2018-03-26T16:44:27.392Z,47.63
2018-03-26T16:47:00.968Z,48.02
2018-03-26T16:49:34.509Z,47.80
2018-03-26T16:52:08.152Z,48.10
2018-03-26T16:54:41.730Z,47.00
2018-03-26T16:57:15.396Z,46.55
2018-03-26T16:59:48.977Z,46.47
2018-03-26T17:02:22.689Z,46.49
2018-03-26T17:04:56.457Z,46.77
2018-03-26T17:07:30.089Z,47.48
2018-03-26T17:10:03.639Z,47.47
2018-03-26T17:12:37.209Z,47.68
2018-03-26T17:15:10.953Z,47.86
2018-03-26T17:17:44.617Z,48.18
2018-03-26T17:20:18.190Z,48.38
2018-03-26T17:22:51.752Z,48.20
2018-03-26T17:25:25.287Z,47.65
2018-03-26T17:27:58.805Z,49.75
2018-03-26T17:30:32.318Z,51.33
2018-03-26T17:33:05.910Z,51.18
2018-03-26T17:35:39.474Z,52.33
2018-03-26T17:38:12.944Z,51.29
2018-03-26T17:40:46.609Z,52.25
2018-03-26T17:43:20.302Z,51.33
2018-03-26T17:45:53.853Z,52.48
2018-03-26T17:48:27.679Z,53.58
2018-03-26T17:51:01.338Z,53.56
2018-03-26T17:53:34.874Z,53.79
2018-03-26T17:56:08.490Z,54.04
2018-03-26T17:58:42.153Z,52.86
2018-03-26T18:01:15.792Z,51.64
2018-03-26T18:03:49.265Z,51.43
2018-03-26T18:06:22.946Z,51.19
2018-03-26T18:08:56.511Z,51.45
2018-03-26T18:11:30.130Z,52.45
2018-03-26T18:14:03.681Z,53.10
2018-03-26T18:16:37.330Z,52.71
2018-03-26T18:19:10.986Z,53.41
2018-03-26T18:21:44.813Z,53.59
2018-03-26T18:24:18.437Z,53.61
2018-03-26T18:26:52.029Z,53.90
2018-03-26T18:29:25.671Z,54.00
2018-03-26T18:31:59.317Z,53.33
2018-03-26T18:34:33.011Z,54.48
2018-03-26T18:37:06.490Z,54.31
2018-03-26T18:39:40.158Z,54.85
2018-03-26T18:42:13.798Z,55.44
2018-03-26T18:44:47.426Z,54.72
2018-03-26T18:47:21.138Z,55.06
2018-03-26T18:49:54.802Z,54.53
2018-03-26T18:52:28.390Z,54.88
2018-03-26T18:55:02.393Z,54.07
2018-03-26T18:57:36.038Z,54.86
2018-03-26T19:00:09.677Z,55.40
2018-03-26T19:02:43.246Z,54.46
2018-03-26T19:05:16.922Z,55.56
2018-03-26T19:07:50.470Z,54.12
2018-03-26T19:10:24.070Z,53.58
2018-03-26T19:12:57.614Z,54.09
2018-03-26T19:15:31.409Z,55.65
2018-03-26T19:18:05.010Z,56.34
2018-03-26T19:20:38.637Z,55.92
2018-03-26T19:23:12.262Z,56.25
2018-03-26T19:25:45.938Z,56.78
2018-03-26T19:28:19.574Z,57.30
2018-03-26T19:30:53.266Z,57.15
2018-03-26T19:33:26.946Z,57.88
2018-03-26T19:36:14.226Z,57.04
2018-03-26T19:38:47.990Z,56.33
2018-03-26T19:41:21.681Z,55.85
2018-03-26T19:43:55.294Z,56.48
2018-03-26T19:46:28.930Z,57.59
2018-03-26T19:49:02.445Z,60.19
2018-03-26T19:51:36.076Z,61.16
2018-03-26T19:54:09.667Z,62.84
2018-03-26T19:56:43.329Z,63.59
2018-03-26T19:59:16.930Z,64.65
2018-03-26T20:01:50.550Z,67.48
2018-03-26T20:04:24.133Z,66.70
2018-03-26T20:06:57.762Z,67.15
2018-03-26T20:09:31.419Z,67.21
2018-03-26T20:12:05.168Z,68.89
2018-03-26T20:14:39.015Z,68.10
2018-03-26T20:17:13.640Z,67.19
2018-03-26T20:19:47.373Z,67.69
2018-03-26T20:22:20.906Z,70.28
2018-03-26T20:24:54.505Z,69.85
2018-03-26T20:27:28.306Z,69.41
2018-03-26T20:30:01.960Z,70.17
2018-03-26T20:32:35.578Z,71.24
2018-03-26T20:35:09.131Z,70.96
2018-03-26T20:37:42.903Z,71.11
2018-03-26T20:40:16.539Z,71.68
2018-03-26T20:42:50.106Z,72.05
2018-03-26T20:45:23.831Z,74.42
2018-03-26T20:47:57.510Z,72.47
2018-03-26T20:50:31.047Z,74.57
2018-03-26T20:53:04.698Z,72.83
2018-03-26T20:55:38.302Z,75.48
2018-03-26T20:58:11.895Z,75.41
2018-03-26T21:00:45.544Z,76.94
2018-03-26T21:03:19.122Z,78.65
2018-03-26T21:05:52.686Z,77.18
2018-03-26T21:08:26.327Z,78.67
2018-03-26T21:10:59.980Z,79.02
2018-03-26T21:13:33.510Z,79.86
2018-03-26T21:16:07.199Z,79.96
2018-03-26T21:18:40.763Z,80.43
2018-03-26T21:21:14.499Z,80.43
2018-03-26T21:23:48.299Z,81.51
2018-03-26T21:26:21.942Z,81.19
2018-03-26T21:28:55.514Z,81.31
2018-03-26T21:31:29.181Z,81.48
2018-03-26T21:34:02.990Z,81.32
2018-03-26T21:36:36.543Z,82.10
2018-03-26T21:39:10.114Z,80.44
2018-03-26T21:41:43.672Z,79.59
2018-03-26T21:44:17.296Z,79.03
2018-03-26T21:46:50.926Z,78.88
2018-03-26T21:49:24.576Z,77.51
2018-03-26T21:51:58.127Z,77.35
2018-03-26T21:54:31.788Z,76.95
2018-03-26T21:57:05.418Z,76.48
2018-03-26T21:59:39.050Z,77.00
2018-03-26T22:02:12.642Z,76.63
2018-03-26T22:04:46.395Z,77.26
2018-03-26T22:07:20.098Z,78.25
2018-03-26T22:09:53.676Z,78.85
2018-03-26T22:12:27.361Z,79.84
2018-03-26T22:15:01.242Z,80.92
2018-03-26T22:17:34.883Z,81.88
2018-03-26T22:20:08.503Z,82.13
2018-03-26T22:22:42.123Z,83.49
2018-03-26T22:25:15.798Z,83.47
2018-03-26T22:27:49.429Z,83.96
2018-03-26T22:30:23.095Z,84.86
2018-03-26T22:32:56.842Z,84.89
2018-03-26T22:35:30.424Z,84.63
2018-03-26T22:38:03.951Z,84.86
2018-03-26T22:40:37.451Z,85.31
2018-03-26T22:43:11.066Z,85.46
2018-03-26T22:45:44.694Z,84.99
2018-03-26T22:48:18.335Z,84.58
2018-03-26T22:50:52.047Z,84.50
2018-03-26T22:53:25.630Z,83.58
2018-03-26T22:55:59.169Z,82.97
2018-03-26T22:58:32.715Z,82.60
2018-03-26T23:01:06.442Z,83.39
2018-03-26T23:03:40.021Z,82.66
2018-03-26T23:06:13.646Z,82.87
2018-03-26T23:08:47.173Z,83.03
2018-03-26T23:11:20.733Z,82.32
2018-03-26T23:13:54.395Z,82.77
2018-03-26T23:16:28.054Z,83.07
2018-03-26T23:19:01.640Z,83.60
2018-03-26T23:21:35.337Z,83.80
2018-03-26T23:24:08.842Z,83.95
2018-03-26T23:26:42.559Z,83.64
2018-03-26T23:29:16.117Z,83.47
2018-03-26T23:31:49.733Z,81.39
2018-03-26T23:34:23.277Z,80.95
2018-03-26T23:43:09.847Z,81.19
2018-03-26T23:45:43.517Z,82.35
2018-03-26T23:48:17.020Z,82.27
2018-03-26T23:50:50.736Z,81.04
2018-03-26T23:53:24.290Z,81.24
2018-03-26T23:55:57.883Z,81.25
2018-03-26T23:58:31.446Z,81.24
